Westvale, New York
Current Conditions -  °F | °C
As of 11:54 PM on Wednesday 22 Oct 2014 (Local Time) from KSYR Reporting Station
Overcast Overcast  
Wind Chill: 42°   Ceiling: 8500
Heat Index: 46°   Visibility: 10mi
Dew Point: 43°   Wind: 7mph
Humidity: 89%   Direction: 290°WNW
Pressure: 30.06"   Gusts: NA
Location:  43.0396°N, 76.2224°W
Report Text: KSYR 230354Z 29006KT 10SM FEW049 BKN085 OVC170 08/06 A3006 RMK AO2 SLP178 T00780061
Loading
Personal Weather Stations






























Interactive Weather Map
Tropical Storm Tracking
New forecast layout! Learn more

10-Day Weather Forecast

Advertisements
Track Severe Weather on mobile